createdAt,value
2023-01-20T00:00:41.087Z,97.13
2023-01-20T00:03:45.742Z,97.38
2023-01-20T00:06:48.308Z,97.77
2023-01-20T00:09:50.766Z,98.76
2023-01-20T00:12:53.268Z,98.10
2023-01-20T00:15:55.734Z,98.16
2023-01-20T00:18:58.620Z,98.35
2023-01-20T00:22:01.067Z,98.21
2023-01-20T00:25:03.593Z,98.83
2023-01-20T00:28:10.300Z,99.61
2023-01-20T00:31:20.399Z,99.32
2023-01-20T00:34:22.812Z,100.00
2023-01-20T00:37:25.382Z,100.00
2023-01-20T00:40:27.823Z,100.00
2023-01-20T00:43:30.282Z,100.00
2023-01-20T00:46:32.722Z,100.00
2023-01-20T00:49:35.155Z,100.00
2023-01-20T00:52:37.596Z,100.00
2023-01-20T00:55:40.247Z,100.00
2023-01-20T00:58:44.330Z,100.00
2023-01-20T01:01:47.191Z,100.00
2023-01-20T01:04:50.927Z,100.00
2023-01-20T01:07:53.348Z,100.00
2023-01-20T01:10:56.095Z,100.00
2023-01-20T01:13:58.595Z,100.00
2023-01-20T01:17:01.109Z,100.00
2023-01-20T01:20:04.449Z,100.00
2023-01-20T01:23:06.860Z,100.00
2023-01-20T01:26:10.459Z,100.00
2023-01-20T01:29:13.199Z,100.00
2023-01-20T01:32:15.661Z,100.00
2023-01-20T01:35:18.172Z,100.00
2023-01-20T01:38:20.604Z,100.00
2023-01-20T01:41:22.969Z,100.00
2023-01-20T01:44:26.553Z,100.00
2023-01-20T01:47:28.960Z,100.00
2023-01-20T01:50:42.049Z,100.00
2023-01-20T01:53:48.212Z,100.00
2023-01-20T01:56:51.288Z,100.00
2023-01-20T01:59:53.838Z,100.00
2023-01-20T02:02:56.914Z,100.00
2023-01-20T02:05:59.496Z,100.00
2023-01-20T02:09:03.709Z,100.00
2023-01-20T02:12:09.874Z,100.00
2023-01-20T02:15:12.689Z,100.00
2023-01-20T02:18:54.838Z,100.00
2023-01-20T02:22:18.917Z,100.00
2023-01-20T02:25:35.876Z,100.00
2023-01-20T02:28:54.165Z,100.00
2023-01-20T02:32:09.716Z,100.00
2023-01-20T02:35:21.726Z,100.00
2023-01-20T02:38:34.992Z,100.00
2023-01-20T02:41:52.511Z,100.00
2023-01-20T02:45:09.735Z,100.00
2023-01-20T02:48:22.927Z,100.00
2023-01-20T02:51:57.344Z,98.76
2023-01-20T02:55:04.446Z,98.79
2023-01-20T02:58:28.774Z,98.56
2023-01-20T03:01:34.629Z,97.51
2023-01-20T03:04:50.659Z,98.18
2023-01-20T03:07:53.725Z,98.21
2023-01-20T03:10:59.554Z,97.66
2023-01-20T03:14:06.299Z,98.27
2023-01-20T03:17:08.683Z,98.85
2023-01-20T03:20:11.702Z,98.64
2023-01-20T03:23:14.145Z,98.81
2023-01-20T03:26:18.937Z,98.22
2023-01-20T03:29:21.438Z,98.93
2023-01-20T03:32:26.847Z,98.35
2023-01-20T03:35:29.446Z,98.87
2023-01-20T03:38:31.997Z,99.66
2023-01-20T03:42:01.298Z,99.66
2023-01-20T03:45:10.818Z,99.60
2023-01-20T03:48:31.918Z,99.89
2023-01-20T03:51:45.608Z,100.00
2023-01-20T03:54:52.190Z,100.00
2023-01-20T03:57:58.664Z,100.00
2023-01-20T04:01:15.583Z,100.00
2023-01-20T04:04:21.694Z,100.00
2023-01-20T04:07:25.724Z,100.00
2023-01-20T04:10:31.052Z,100.00
2023-01-20T04:13:33.998Z,100.00
2023-01-20T04:16:36.566Z,100.00
2023-01-20T04:19:39.290Z,100.00
2023-01-20T04:22:51.125Z,100.00
2023-01-20T04:25:53.553Z,100.00
2023-01-20T04:28:56.015Z,100.00
2023-01-20T04:32:02.379Z,99.98
2023-01-20T04:35:05.198Z,99.22
2023-01-20T04:38:07.737Z,98.95
2023-01-20T04:41:11.812Z,99.30
2023-01-20T04:44:14.315Z,98.91
2023-01-20T04:47:16.703Z,98.91
2023-01-20T04:50:19.388Z,99.02
2023-01-20T04:53:21.798Z,100.00
2023-01-20T04:56:24.354Z,99.85
2023-01-20T04:59:26.720Z,99.70
2023-01-20T05:02:29.171Z,99.86
2023-01-20T05:05:31.669Z,100.00
2023-01-20T05:08:34.566Z,100.00
2023-01-20T05:11:37.697Z,100.00
2023-01-20T05:14:40.145Z,100.00
2023-01-20T05:17:42.511Z,100.00
2023-01-20T05:20:49.332Z,99.64
2023-01-20T05:23:55.568Z,99.72
2023-01-20T05:27:00.973Z,99.44
2023-01-20T05:30:05.288Z,99.47
2023-01-20T05:33:08.354Z,99.53
2023-01-20T05:36:11.751Z,100.00
2023-01-20T05:39:14.154Z,99.84
2023-01-20T05:42:16.740Z,99.89
2023-01-20T05:45:19.147Z,99.84
2023-01-20T05:48:21.934Z,99.94
2023-01-20T05:51:24.560Z,99.76
2023-01-20T05:54:26.993Z,100.00
2023-01-20T05:57:29.369Z,100.00
2023-01-20T06:00:32.245Z,99.92
2023-01-20T06:03:35.351Z,100.00
2023-01-20T06:06:37.968Z,100.00
2023-01-20T06:09:40.913Z,99.73
2023-01-20T06:12:43.454Z,100.00
2023-01-20T06:15:51.720Z,99.29
2023-01-20T06:18:54.232Z,99.52
2023-01-20T06:21:56.984Z,99.52
2023-01-20T06:24:59.450Z,99.47
2023-01-20T06:28:01.930Z,98.85
2023-01-20T06:31:08.411Z,98.02
2023-01-20T06:34:11.841Z,98.46
2023-01-20T06:37:14.285Z,98.91
2023-01-20T06:40:17.577Z,98.50
2023-01-20T06:43:23.098Z,98.56
2023-01-20T06:46:26.038Z,98.22
2023-01-20T06:49:28.740Z,97.76
2023-01-20T06:52:31.168Z,98.08
2023-01-20T06:55:33.617Z,97.90
2023-01-20T06:58:36.165Z,98.14
2023-01-20T07:01:39.072Z,98.08
2023-01-20T07:04:43.343Z,98.23
2023-01-20T07:07:46.400Z,98.42
2023-01-20T07:10:48.837Z,98.09
2023-01-20T07:13:51.215Z,98.60
2023-01-20T07:16:53.749Z,98.47
2023-01-20T07:19:56.437Z,99.20
2023-01-20T07:23:02.800Z,99.17
2023-01-20T07:26:08.093Z,98.67
2023-01-20T07:29:10.790Z,99.15
2023-01-20T07:32:14.017Z,98.59
2023-01-20T07:35:17.364Z,98.22
2023-01-20T07:38:20.024Z,97.00
2023-01-20T07:41:22.832Z,96.31
2023-01-20T07:44:25.270Z,95.59
2023-01-20T07:47:27.687Z,95.54
2023-01-20T07:50:30.415Z,96.37
2023-01-20T07:53:47.413Z,96.20
2023-01-20T07:56:49.871Z,95.06
2023-01-20T07:59:52.448Z,94.88
2023-01-20T08:02:55.142Z,94.54
2023-01-20T08:05:57.678Z,95.40
2023-01-20T08:09:01.816Z,95.12
2023-01-20T08:12:04.556Z,94.92
2023-01-20T08:15:07.809Z,95.89
2023-01-20T08:18:10.265Z,95.20
2023-01-20T08:21:32.294Z,95.64
2023-01-20T08:24:34.736Z,94.93
2023-01-20T08:27:37.113Z,94.01
2023-01-20T08:30:39.724Z,94.53
2023-01-20T08:33:43.013Z,94.31
2023-01-20T08:36:45.712Z,94.46
2023-01-20T08:39:48.234Z,93.24
2023-01-20T08:42:50.699Z,94.04
2023-01-20T08:46:05.409Z,94.26
2023-01-20T08:49:14.319Z,93.25
2023-01-20T08:52:16.801Z,94.66
2023-01-20T08:55:19.379Z,93.99
2023-01-20T08:58:24.026Z,94.19
2023-01-20T09:01:29.877Z,94.50
2023-01-20T09:04:36.950Z,94.35
2023-01-20T09:07:39.426Z,93.75
2023-01-20T09:10:41.938Z,94.33
2023-01-20T09:13:44.649Z,94.30
2023-01-20T09:16:47.562Z,92.93
2023-01-20T09:19:50.175Z,93.24
2023-01-20T09:22:52.954Z,93.49
2023-01-20T09:25:55.626Z,92.39
2023-01-20T09:28:58.283Z,92.76
2023-01-20T09:32:01.255Z,93.34
2023-01-20T09:35:04.212Z,95.23
2023-01-20T09:38:25.427Z,94.59
2023-01-20T09:41:51.267Z,94.99
2023-01-20T09:44:57.634Z,95.79
2023-01-20T09:48:15.147Z,95.78
2023-01-20T09:51:43.323Z,95.16
2023-01-20T09:54:51.793Z,95.31
2023-01-20T09:57:59.862Z,95.38
2023-01-20T10:01:32.877Z,94.57
2023-01-20T10:04:42.346Z,95.30
2023-01-20T10:07:58.717Z,94.90
2023-01-20T10:11:12.270Z,95.35
2023-01-20T10:14:25.326Z,95.29
2023-01-20T10:17:49.102Z,95.76
2023-01-20T10:20:59.779Z,95.49
2023-01-20T10:24:13.325Z,96.52
2023-01-20T10:27:15.770Z,96.06
2023-01-20T10:30:19.579Z,96.36
2023-01-20T10:33:28.184Z,95.98
2023-01-20T10:36:31.756Z,96.75
2023-01-20T10:39:41.253Z,97.60
2023-01-20T10:42:49.390Z,97.19
2023-01-20T10:46:04.028Z,97.58
2023-01-20T10:49:35.312Z,98.14
2023-01-20T10:53:08.370Z,98.09
2023-01-20T10:56:35.249Z,98.00
2023-01-20T10:59:41.247Z,98.77
2023-01-20T11:02:43.863Z,99.07
2023-01-20T11:05:47.828Z,97.81
2023-01-20T11:08:50.354Z,98.70
2023-01-20T11:11:53.170Z,98.67
2023-01-20T11:14:59.920Z,98.37
2023-01-20T11:18:14.454Z,98.73
2023-01-20T11:21:23.902Z,98.92
2023-01-20T11:24:40.357Z,99.34
2023-01-20T11:27:44.685Z,100.00
2023-01-20T11:30:52.342Z,100.00
2023-01-20T11:34:20.762Z,100.00
2023-01-20T11:37:27.758Z,100.00
2023-01-20T11:40:30.406Z,100.00
2023-01-20T11:43:37.898Z,100.00
2023-01-20T11:46:40.443Z,100.00
2023-01-20T11:49:42.865Z,100.00
2023-01-20T11:52:47.338Z,100.00
2023-01-20T11:55:59.901Z,100.00
2023-01-20T11:59:03.599Z,100.00
2023-01-20T12:02:09.224Z,100.00
2023-01-20T12:05:25.280Z,100.00
2023-01-20T12:08:42.963Z,100.00
2023-01-20T12:12:05.139Z,100.00
2023-01-20T12:15:18.209Z,100.00
2023-01-20T12:18:50.400Z,100.00
2023-01-20T12:22:09.296Z,100.00
2023-01-20T12:25:13.800Z,100.00
2023-01-20T12:28:20.110Z,100.00
2023-01-20T12:41:42.324Z,100.00
2023-01-20T13:09:33.685Z,100.00
2023-01-20T13:13:01.152Z,100.00
2023-01-20T13:16:11.054Z,100.00
2023-01-20T13:19:24.406Z,100.00
2023-01-20T13:22:27.009Z,100.00
2023-01-20T13:25:30.107Z,100.00
2023-01-20T13:28:32.887Z,100.00
2023-01-20T13:31:38.576Z,100.00
2023-01-20T13:34:41.558Z,100.00
2023-01-20T13:37:52.483Z,100.00
2023-01-20T13:41:03.222Z,100.00
2023-01-20T13:44:26.292Z,100.00
2023-01-20T13:47:46.954Z,100.00
2023-01-20T13:50:50.380Z,100.00
2023-01-20T13:53:53.449Z,100.00
2023-01-20T13:57:23.112Z,100.00
2023-01-20T14:00:25.900Z,100.00
2023-01-20T14:03:30.042Z,100.00
2023-01-20T14:06:34.217Z,99.88
2023-01-20T14:09:37.429Z,100.00
2023-01-20T14:12:40.611Z,99.71
2023-01-20T14:15:43.045Z,100.00
2023-01-20T14:18:45.919Z,100.00
2023-01-20T14:21:53.173Z,99.74
2023-01-20T14:25:01.783Z,98.91
2023-01-20T14:28:18.596Z,99.00
2023-01-20T14:31:22.275Z,98.64
2023-01-20T14:34:32.735Z,98.19
2023-01-20T14:37:36.855Z,98.87
2023-01-20T14:40:42.936Z,98.34
2023-01-20T14:43:45.806Z,99.41
2023-01-20T14:46:50.325Z,97.98
2023-01-20T14:49:53.969Z,98.46
2023-01-20T14:52:56.635Z,98.30
2023-01-20T14:56:07.761Z,98.26
2023-01-20T14:59:18.929Z,98.53
2023-01-20T15:02:28.497Z,98.47
2023-01-20T15:05:34.275Z,98.44
2023-01-20T15:08:37.347Z,98.62
2023-01-20T15:11:40.113Z,97.74
2023-01-20T15:14:42.580Z,97.62
2023-01-20T15:18:20.098Z,98.93
2023-01-20T15:21:27.222Z,97.08
2023-01-20T15:24:31.440Z,97.00
2023-01-20T15:27:34.122Z,97.05
2023-01-20T15:30:37.269Z,97.83
2023-01-20T15:33:39.706Z,97.70
2023-01-20T15:36:43.955Z,97.60
2023-01-20T15:39:47.575Z,97.88
2023-01-20T15:42:51.251Z,96.75
2023-01-20T15:45:53.772Z,97.02
2023-01-20T15:48:56.853Z,95.48
2023-01-20T15:51:59.653Z,95.22
2023-01-20T15:55:02.080Z,96.35
2023-01-20T15:58:21.010Z,96.33
2023-01-20T16:01:25.487Z,96.34
2023-01-20T16:04:28.813Z,96.46
2023-01-20T16:07:31.187Z,96.71
2023-01-20T16:10:36.133Z,97.42
2023-01-20T16:13:38.656Z,97.18
2023-01-20T16:16:41.201Z,97.96
2023-01-20T16:19:44.189Z,97.76
2023-01-20T16:22:46.642Z,97.79
2023-01-20T16:25:49.317Z,98.36
2023-01-20T16:28:53.322Z,98.59
2023-01-20T16:31:55.770Z,98.91
2023-01-20T16:34:58.407Z,99.98
2023-01-20T16:38:03.255Z,99.57
2023-01-20T16:41:13.924Z,99.20
2023-01-20T16:44:16.693Z,99.13
2023-01-20T16:47:19.238Z,99.59
2023-01-20T16:50:22.116Z,99.45
2023-01-20T16:53:24.550Z,99.34
2023-01-20T16:56:30.959Z,99.06
2023-01-20T16:59:33.842Z,99.97
2023-01-20T17:02:38.936Z,100.00
2023-01-20T17:05:41.586Z,100.00
2023-01-20T17:08:49.044Z,100.00
2023-01-20T17:11:51.655Z,100.00
2023-01-20T17:14:54.037Z,100.00
2023-01-20T17:17:58.307Z,100.00
2023-01-20T17:21:07.600Z,100.00
2023-01-20T17:24:11.259Z,100.00
2023-01-20T17:27:13.674Z,100.00
2023-01-20T17:30:17.932Z,100.00
2023-01-20T17:33:20.528Z,100.00
2023-01-20T17:36:23.155Z,100.00
2023-01-20T17:39:26.132Z,100.00
2023-01-20T17:42:28.642Z,100.00
2023-01-20T17:45:32.029Z,100.00
2023-01-20T17:48:34.715Z,100.00
2023-01-20T17:51:37.178Z,100.00
2023-01-20T17:54:39.765Z,100.00
2023-01-20T17:57:42.469Z,100.00
2023-01-20T18:00:44.927Z,100.00
2023-01-20T18:03:50.436Z,100.00
2023-01-20T18:06:53.198Z,100.00
2023-01-20T18:09:55.646Z,100.00
2023-01-20T18:12:58.378Z,100.00
2023-01-20T18:16:09.000Z,100.00
2023-01-20T18:19:13.135Z,100.00
2023-01-20T18:22:16.347Z,100.00
2023-01-20T18:25:18.868Z,100.00
2023-01-20T18:28:21.482Z,100.00
2023-01-20T18:31:25.991Z,100.00
2023-01-20T18:34:29.732Z,100.00
2023-01-20T18:37:32.373Z,100.00
2023-01-20T18:40:35.039Z,100.00
2023-01-20T18:43:38.473Z,100.00
2023-01-20T18:46:41.139Z,100.00
2023-01-20T18:49:43.729Z,100.00
2023-01-20T18:52:46.213Z,100.00
2023-01-20T18:55:48.677Z,100.00
2023-01-20T18:58:51.701Z,100.00
2023-01-20T19:01:56.368Z,100.00
2023-01-20T19:04:59.054Z,100.00
2023-01-20T19:08:01.690Z,100.00
2023-01-20T19:11:06.786Z,100.00
2023-01-20T19:14:12.863Z,100.00
2023-01-20T19:17:15.932Z,100.00
2023-01-20T19:20:18.724Z,100.00
2023-01-20T19:23:21.485Z,100.00
2023-01-20T19:26:25.586Z,100.00
2023-01-20T19:29:29.466Z,100.00
2023-01-20T19:32:32.288Z,100.00
2023-01-20T19:35:35.268Z,100.00
2023-01-20T19:38:38.456Z,100.00
2023-01-20T19:41:41.046Z,100.00
2023-01-20T19:44:43.666Z,100.00
2023-01-20T19:47:47.347Z,100.00
2023-01-20T19:50:50.119Z,100.00
2023-01-20T19:53:57.433Z,100.00
2023-01-20T19:57:00.617Z,100.00
2023-01-20T20:00:04.868Z,100.00
2023-01-20T20:03:15.016Z,100.00
2023-01-20T20:06:31.951Z,100.00
2023-01-20T20:09:35.460Z,100.00
2023-01-20T20:12:37.923Z,100.00
2023-01-20T20:15:40.680Z,100.00
2023-01-20T20:18:43.551Z,100.00
2023-01-20T20:21:46.672Z,100.00
2023-01-20T20:24:49.473Z,100.00
2023-01-20T20:27:52.513Z,100.00
2023-01-20T20:30:56.701Z,100.00
2023-01-20T20:34:00.443Z,100.00
2023-01-20T20:37:03.547Z,100.00
2023-01-20T20:40:06.881Z,100.00
2023-01-20T20:43:10.053Z,100.00
2023-01-20T20:46:16.494Z,100.00
2023-01-20T20:49:19.229Z,100.00
2023-01-20T20:52:21.885Z,100.00
2023-01-20T20:55:25.464Z,100.00
2023-01-20T20:58:29.045Z,100.00
2023-01-20T21:01:34.097Z,100.00
2023-01-20T21:04:36.668Z,100.00
2023-01-20T21:07:39.306Z,100.00
2023-01-20T21:10:42.795Z,100.00
2023-01-20T21:13:45.523Z,100.00
2023-01-20T21:16:48.574Z,100.00
2023-01-20T21:19:52.474Z,100.00
2023-01-20T21:22:55.407Z,100.00
2023-01-20T21:26:02.249Z,100.00
2023-01-20T21:29:04.855Z,100.00
2023-01-20T21:32:07.300Z,100.00
2023-01-20T21:35:10.383Z,100.00
2023-01-20T21:38:13.744Z,100.00
2023-01-20T21:41:16.553Z,100.00
2023-01-20T21:44:32.860Z,100.00
2023-01-20T21:47:35.380Z,100.00
2023-01-20T21:50:56.159Z,100.00
2023-01-20T21:53:58.848Z,100.00
2023-01-20T21:57:01.903Z,100.00
2023-01-20T22:00:06.897Z,100.00
2023-01-20T22:03:15.881Z,100.00
2023-01-20T22:06:18.426Z,100.00
2023-01-20T22:09:20.977Z,100.00
2023-01-20T22:12:23.354Z,100.00
2023-01-20T22:15:25.921Z,100.00
2023-01-20T22:18:28.414Z,100.00
2023-01-20T22:21:32.438Z,100.00
2023-01-20T22:24:34.929Z,100.00
2023-01-20T22:27:37.410Z,100.00
2023-01-20T22:30:40.100Z,100.00
2023-01-20T22:33:42.742Z,100.00
2023-01-20T22:36:46.747Z,100.00
2023-01-20T22:39:49.802Z,100.00
2023-01-20T22:42:52.286Z,100.00
2023-01-20T22:45:59.337Z,100.00
2023-01-20T22:49:02.362Z,100.00
2023-01-20T22:52:04.978Z,100.00
2023-01-20T22:55:07.858Z,100.00
2023-01-20T22:58:10.290Z,100.00
2023-01-20T23:01:33.467Z,100.00
2023-01-20T23:04:35.917Z,100.00
2023-01-20T23:07:38.597Z,100.00
2023-01-20T23:10:47.314Z,100.00
2023-01-20T23:13:50.752Z,100.00
2023-01-20T23:16:53.243Z,100.00
2023-01-20T23:19:56.836Z,100.00
2023-01-20T23:22:59.221Z,100.00
2023-01-20T23:26:06.977Z,100.00
2023-01-20T23:29:09.442Z,100.00
2023-01-20T23:32:11.950Z,100.00
2023-01-20T23:35:14.461Z,100.00
2023-01-20T23:38:16.912Z,100.00
2023-01-20T23:41:20.062Z,100.00
2023-01-20T23:44:22.475Z,100.00
2023-01-20T23:47:25.010Z,100.00
2023-01-20T23:50:27.536Z,100.00
2023-01-20T23:53:31.211Z,100.00
2023-01-20T23:56:33.680Z,100.00
2023-01-20T23:59:37.934Z,100.00
